createdAt,value
2023-02-19T00:01:22.116Z,22.27
2023-02-19T00:03:52.228Z,22.50
2023-02-19T00:06:20.153Z,26.60
2023-02-19T00:08:47.120Z,27.37
2023-02-19T00:11:16.430Z,24.27
2023-02-19T00:13:45.185Z,22.70
2023-02-19T00:16:22.156Z,25.17
2023-02-19T00:18:49.343Z,23.67
2023-02-19T00:21:17.218Z,22.73
2023-02-19T00:23:45.778Z,29.20
2023-02-19T00:26:18.479Z,29.33
2023-02-19T00:28:49.057Z,35.37
2023-02-19T00:31:32.492Z,27.73
2023-02-19T00:34:04.975Z,36.80
2023-02-19T00:36:32.898Z,36.43
2023-02-19T00:38:59.575Z,33.13
2023-02-19T00:41:26.436Z,29.73
2023-02-19T00:43:57.533Z,27.27
2023-02-19T00:46:38.880Z,31.60
2023-02-19T00:49:07.169Z,25.80
2023-02-19T00:51:36.490Z,24.77
2023-02-19T00:54:04.334Z,25.97
2023-02-19T00:56:31.441Z,24.90
2023-02-19T00:58:58.120Z,25.13
2023-02-19T01:01:25.005Z,26.00
2023-02-19T01:03:51.899Z,26.60
2023-02-19T01:06:20.395Z,25.57
2023-02-19T01:08:48.167Z,28.53
2023-02-19T01:11:16.132Z,28.90
2023-02-19T01:13:43.528Z,31.80
2023-02-19T01:16:23.743Z,32.53
2023-02-19T01:18:51.102Z,30.30
2023-02-19T01:21:24.184Z,27.90
2023-02-19T01:23:51.862Z,31.67
2023-02-19T01:26:22.631Z,32.17
2023-02-19T01:28:49.470Z,30.40
2023-02-19T01:31:21.722Z,25.87
2023-02-19T01:33:50.806Z,24.30
2023-02-19T01:36:18.194Z,27.30
2023-02-19T01:38:45.603Z,28.30
2023-02-19T01:41:16.360Z,30.43
2023-02-19T01:44:03.412Z,25.70
2023-02-19T01:46:35.095Z,26.00
2023-02-19T01:49:19.027Z,27.50
2023-02-19T01:51:52.382Z,29.13
2023-02-19T01:54:23.205Z,31.23
2023-02-19T01:56:51.220Z,29.97
2023-02-19T01:59:18.768Z,26.80
2023-02-19T02:01:45.604Z,24.07
2023-02-19T02:04:14.332Z,26.17
2023-02-19T02:06:52.787Z,25.30
2023-02-19T02:09:39.592Z,24.30
2023-02-19T02:12:06.612Z,24.90
2023-02-19T02:14:40.015Z,25.43
2023-02-19T02:17:30.281Z,23.03
2023-02-19T02:20:15.500Z,27.40
2023-02-19T02:22:48.226Z,28.57
2023-02-19T02:25:21.110Z,25.23
2023-02-19T02:28:10.765Z,22.93
2023-02-19T02:30:45.171Z,24.27
2023-02-19T02:33:37.857Z,24.83
2023-02-19T02:36:17.621Z,31.07
2023-02-19T02:38:46.925Z,23.40
2023-02-19T02:41:15.532Z,24.70
2023-02-19T02:43:43.284Z,27.07
2023-02-19T02:46:12.730Z,26.63
2023-02-19T02:48:49.381Z,30.27
2023-02-19T02:51:29.464Z,28.10
2023-02-19T02:54:33.274Z,31.07
2023-02-19T02:57:04.440Z,35.47
2023-02-19T02:59:38.162Z,30.30
2023-02-19T03:02:18.987Z,26.47
2023-02-19T03:05:25.023Z,26.80
2023-02-19T03:08:03.605Z,31.43
2023-02-19T03:10:33.069Z,32.07
2023-02-19T03:13:20.920Z,28.70
2023-02-19T03:16:12.644Z,30.90
2023-02-19T03:19:01.973Z,31.43
2023-02-19T03:21:29.296Z,31.00
2023-02-19T03:24:16.169Z,31.97
2023-02-19T03:26:45.495Z,26.80
2023-02-19T03:29:24.698Z,32.83
2023-02-19T03:32:05.291Z,34.40
2023-02-19T03:34:57.163Z,34.87
2023-02-19T03:37:41.332Z,30.20
2023-02-19T03:40:08.759Z,31.63
2023-02-19T03:42:50.090Z,29.90
2023-02-19T03:45:33.819Z,33.53
2023-02-19T03:48:28.795Z,32.37
2023-02-19T03:51:12.678Z,36.40
2023-02-19T03:53:52.046Z,31.23
2023-02-19T03:56:42.937Z,34.53
2023-02-19T03:59:32.705Z,33.20
2023-02-19T04:02:05.443Z,35.30
2023-02-19T04:04:39.030Z,31.70
2023-02-19T04:07:05.927Z,35.60
2023-02-19T04:09:43.478Z,36.17
2023-02-19T04:12:15.383Z,29.63
2023-02-19T04:14:47.997Z,31.00
2023-02-19T04:17:39.802Z,34.73
2023-02-19T04:20:10.020Z,32.30
2023-02-19T04:22:39.031Z,33.03
2023-02-19T04:25:06.219Z,34.63
2023-02-19T04:27:36.973Z,39.77
2023-02-19T04:30:09.137Z,32.53
2023-02-19T04:32:35.855Z,31.83
2023-02-19T04:35:02.568Z,33.37
2023-02-19T04:37:29.191Z,42.00
2023-02-19T04:39:55.865Z,37.50
2023-02-19T04:42:22.532Z,32.20
2023-02-19T04:44:49.171Z,36.37
2023-02-19T04:47:18.988Z,32.70
2023-02-19T04:49:46.049Z,35.43
2023-02-19T04:52:13.165Z,34.53
2023-02-19T04:54:40.066Z,31.60
2023-02-19T04:57:06.771Z,31.67
2023-02-19T04:59:33.528Z,38.10
2023-02-19T05:02:00.206Z,27.33
2023-02-19T05:04:27.028Z,37.60
2023-02-19T05:06:53.727Z,29.17
2023-02-19T05:09:20.445Z,31.90
2023-02-19T05:11:47.078Z,35.50
2023-02-19T05:14:13.826Z,36.30
2023-02-19T05:16:40.613Z,28.63
2023-02-19T05:19:07.274Z,37.63
2023-02-19T05:21:33.934Z,29.83
2023-02-19T05:24:00.653Z,32.20
2023-02-19T05:26:27.273Z,37.60
2023-02-19T05:28:54.298Z,35.30
2023-02-19T05:31:21.676Z,37.47
2023-02-19T05:33:51.153Z,35.70
2023-02-19T05:36:20.432Z,39.83
2023-02-19T05:38:47.640Z,29.87
2023-02-19T05:41:16.586Z,27.17
2023-02-19T05:43:44.866Z,26.23
2023-02-19T05:46:14.206Z,33.53
2023-02-19T05:48:41.571Z,35.80
2023-02-19T05:51:11.575Z,33.20
2023-02-19T05:53:39.285Z,35.53
2023-02-19T05:56:23.700Z,38.33
2023-02-19T05:58:50.908Z,40.50
2023-02-19T06:01:19.300Z,36.93
2023-02-19T06:03:46.139Z,46.27
2023-02-19T06:06:18.356Z,35.10
2023-02-19T06:08:45.434Z,40.77
2023-02-19T06:11:12.534Z,39.47
2023-02-19T06:13:39.411Z,43.63
2023-02-19T06:16:07.746Z,42.13
2023-02-19T06:18:35.226Z,38.50
2023-02-19T06:21:06.171Z,39.07
2023-02-19T06:23:33.649Z,33.13
2023-02-19T06:26:07.406Z,39.67
2023-02-19T06:28:34.080Z,35.57
2023-02-19T06:31:00.934Z,35.63
2023-02-19T06:33:28.141Z,37.63
2023-02-19T06:35:57.682Z,36.53
2023-02-19T06:38:24.352Z,34.20
2023-02-19T06:40:51.018Z,38.87
2023-02-19T06:43:17.670Z,40.50
2023-02-19T06:45:44.359Z,39.87
2023-02-19T06:48:11.064Z,42.80
2023-02-19T06:50:37.728Z,41.20
2023-02-19T06:53:04.557Z,46.97
2023-02-19T06:55:31.605Z,44.20
2023-02-19T06:57:58.237Z,45.27
2023-02-19T07:00:25.052Z,35.77
2023-02-19T07:02:56.362Z,43.13
2023-02-19T07:05:23.840Z,46.90
2023-02-19T07:07:50.658Z,42.33
2023-02-19T07:10:17.550Z,44.40
2023-02-19T07:12:44.370Z,34.67
2023-02-19T07:15:11.169Z,40.00
2023-02-19T07:17:37.812Z,37.43
2023-02-19T07:20:04.774Z,34.37
2023-02-19T07:22:31.433Z,28.03
2023-02-19T07:24:58.073Z,35.10
2023-02-19T07:27:24.698Z,40.07
2023-02-19T07:29:51.328Z,40.00
2023-02-19T07:32:18.027Z,36.80
2023-02-19T07:34:44.698Z,41.47
2023-02-19T07:37:11.338Z,41.70
2023-02-19T07:39:38.016Z,36.43
2023-02-19T07:42:04.838Z,31.63
2023-02-19T07:44:32.404Z,39.87
2023-02-19T07:46:59.076Z,30.10
2023-02-19T07:49:25.774Z,34.20
2023-02-19T07:51:52.504Z,30.97
2023-02-19T07:54:19.167Z,34.67
2023-02-19T07:56:45.837Z,31.93
2023-02-19T07:59:12.499Z,32.40
2023-02-19T08:01:57.656Z,31.77
2023-02-19T08:04:24.362Z,41.07
2023-02-19T08:06:53.183Z,35.73
2023-02-19T08:09:19.895Z,42.47
2023-02-19T08:12:05.343Z,36.97
2023-02-19T08:14:32.144Z,38.00
2023-02-19T08:16:59.168Z,38.90
2023-02-19T08:19:26.110Z,32.10
2023-02-19T08:21:53.556Z,32.27
2023-02-19T08:24:20.481Z,30.57
2023-02-19T08:26:47.142Z,32.20
2023-02-19T08:29:13.810Z,32.20
2023-02-19T08:31:40.581Z,39.43
2023-02-19T08:34:07.335Z,32.93
2023-02-19T08:36:34.017Z,27.53
2023-02-19T08:39:00.702Z,30.30
2023-02-19T08:41:28.055Z,26.57
2023-02-19T08:43:54.733Z,32.63
2023-02-19T08:46:22.587Z,34.17
2023-02-19T08:48:49.905Z,33.60
2023-02-19T08:51:16.677Z,30.63
2023-02-19T08:53:43.399Z,30.80
2023-02-19T08:56:15.846Z,31.47
2023-02-19T08:58:42.706Z,29.20
2023-02-19T09:01:11.984Z,34.43
2023-02-19T09:03:39.133Z,28.70
2023-02-19T09:06:06.080Z,33.53
2023-02-19T09:08:32.914Z,31.57
2023-02-19T09:11:04.564Z,38.30
2023-02-19T09:13:31.470Z,32.23
2023-02-19T09:15:58.380Z,34.87
2023-02-19T09:18:26.238Z,31.57
2023-02-19T09:20:53.033Z,38.30
2023-02-19T09:23:19.881Z,31.63
2023-02-19T09:25:46.532Z,36.63
2023-02-19T09:28:13.254Z,31.93
2023-02-19T09:30:40.017Z,29.93
2023-02-19T09:33:06.708Z,27.40
2023-02-19T09:35:33.780Z,27.63
2023-02-19T09:38:01.893Z,27.00
2023-02-19T09:40:30.045Z,26.67
2023-02-19T09:42:57.230Z,24.23
2023-02-19T09:45:25.993Z,26.33
2023-02-19T09:47:58.422Z,26.73
2023-02-19T09:50:37.201Z,30.73
2023-02-19T09:53:12.761Z,24.57
2023-02-19T09:55:42.368Z,25.10
2023-02-19T09:58:25.520Z,21.37
2023-02-19T10:00:54.238Z,23.40
2023-02-19T10:03:34.155Z,23.50
2023-02-19T10:06:09.339Z,20.03
2023-02-19T10:08:39.640Z,19.97
2023-02-19T10:11:07.023Z,22.73
2023-02-19T10:13:37.419Z,22.30
2023-02-19T10:16:07.547Z,21.90
2023-02-19T10:18:41.114Z,20.10
2023-02-19T10:21:10.771Z,19.00
2023-02-19T10:23:39.370Z,19.53
2023-02-19T10:26:06.028Z,23.47
2023-02-19T10:28:36.344Z,21.03
2023-02-19T10:31:07.516Z,19.97
2023-02-19T10:33:43.899Z,16.10
2023-02-19T10:36:48.440Z,17.17
2023-02-19T10:39:42.155Z,16.60
2023-02-19T10:42:35.012Z,19.73
2023-02-19T10:45:03.863Z,16.00
2023-02-19T10:47:33.045Z,16.63
2023-02-19T10:50:04.020Z,19.63
2023-02-19T10:52:35.185Z,20.13
2023-02-19T10:55:25.683Z,14.70
2023-02-19T10:57:52.357Z,17.10
2023-02-19T11:00:30.380Z,15.20
2023-02-19T11:03:20.545Z,23.43
2023-02-19T11:05:56.019Z,16.67
2023-02-19T11:08:24.200Z,18.73
2023-02-19T11:10:51.497Z,20.90
2023-02-19T11:13:30.257Z,17.60
2023-02-19T11:15:59.027Z,17.57
2023-02-19T11:18:28.762Z,18.50
2023-02-19T11:21:06.924Z,17.37
2023-02-19T11:23:43.641Z,16.40
2023-02-19T11:26:23.009Z,43.70
2023-02-19T11:29:01.032Z,17.20
2023-02-19T11:31:34.152Z,13.57
2023-02-19T11:34:29.674Z,20.27
2023-02-19T11:37:17.023Z,15.37
2023-02-19T11:39:46.584Z,16.67
2023-02-19T11:42:32.742Z,13.33
2023-02-19T11:45:20.611Z,15.50
2023-02-19T11:48:02.325Z,17.10
2023-02-19T11:50:50.319Z,16.63
2023-02-19T11:53:28.605Z,17.17
2023-02-19T11:56:33.570Z,15.50
2023-02-19T11:59:39.361Z,16.73
2023-02-19T12:02:27.456Z,17.93
2023-02-19T12:05:18.893Z,13.70
2023-02-19T12:08:23.383Z,14.83
2023-02-19T12:11:11.742Z,12.03
2023-02-19T12:13:56.242Z,11.07
2023-02-19T12:16:37.911Z,15.07
2023-02-19T12:19:42.345Z,20.40
2023-02-19T12:22:16.943Z,13.90
2023-02-19T12:24:55.926Z,12.00
2023-02-19T12:27:30.929Z,13.37
2023-02-19T12:30:17.218Z,14.80
2023-02-19T12:33:27.093Z,16.80
2023-02-19T12:36:09.593Z,18.03
2023-02-19T12:38:48.689Z,14.60
2023-02-19T12:41:51.016Z,17.03
2023-02-19T12:44:23.117Z,17.90
2023-02-19T12:46:56.280Z,15.87
2023-02-19T12:49:33.132Z,12.00
2023-02-19T12:52:06.518Z,13.50
2023-02-19T12:54:38.121Z,12.33
2023-02-19T12:57:22.818Z,15.63
2023-02-19T13:00:12.042Z,15.03
2023-02-19T13:02:54.577Z,14.63
2023-02-19T13:05:38.601Z,12.67
2023-02-19T13:08:13.641Z,16.40
2023-02-19T13:10:49.357Z,13.90
2023-02-19T13:13:31.872Z,20.43
2023-02-19T13:16:09.881Z,13.70
2023-02-19T13:18:45.265Z,18.07
2023-02-19T13:21:35.319Z,14.17
2023-02-19T13:24:07.516Z,16.03
2023-02-19T13:26:55.329Z,18.03
2023-02-19T13:29:27.644Z,18.23
2023-02-19T13:32:03.501Z,17.50
2023-02-19T13:34:47.894Z,25.43
2023-02-19T13:37:16.641Z,23.30
2023-02-19T13:39:51.992Z,19.20
2023-02-19T13:42:27.092Z,18.83
2023-02-19T13:44:57.927Z,21.67
2023-02-19T13:47:46.321Z,20.03
2023-02-19T13:50:25.705Z,23.00
2023-02-19T13:52:54.505Z,18.33
2023-02-19T13:55:42.019Z,17.90
2023-02-19T13:58:47.448Z,24.57
2023-02-19T14:01:14.594Z,16.47
2023-02-19T14:04:06.630Z,21.60
2023-02-19T14:07:04.401Z,20.43
2023-02-19T14:09:37.068Z,21.63
2023-02-19T14:12:05.563Z,22.10
2023-02-19T14:14:48.794Z,21.97
2023-02-19T14:17:41.716Z,21.43
2023-02-19T14:20:17.338Z,25.00
2023-02-19T14:22:55.247Z,28.27
2023-02-19T14:25:29.986Z,18.57
2023-02-19T14:28:20.672Z,21.17
2023-02-19T14:31:00.628Z,15.43
2023-02-19T14:33:31.359Z,17.33
2023-02-19T14:36:18.260Z,15.50
2023-02-19T14:38:57.984Z,18.53
2023-02-19T14:41:25.845Z,19.50
2023-02-19T14:43:55.318Z,17.00
2023-02-19T14:46:30.485Z,15.07
2023-02-19T14:49:07.230Z,17.80
2023-02-19T14:51:39.475Z,20.90
2023-02-19T14:54:20.389Z,14.67
2023-02-19T14:56:51.178Z,21.67
2023-02-19T14:59:22.998Z,15.53
2023-02-19T15:01:55.077Z,11.93
2023-02-19T15:04:24.290Z,12.07
2023-02-19T15:06:53.055Z,13.70
2023-02-19T15:09:21.492Z,13.20
2023-02-19T15:11:48.868Z,14.23
2023-02-19T15:14:23.675Z,11.30
2023-02-19T15:16:57.257Z,12.40
2023-02-19T15:19:24.110Z,10.47
2023-02-19T15:21:50.990Z,15.57
2023-02-19T15:24:18.908Z,11.83
2023-02-19T15:26:50.952Z,11.30
2023-02-19T15:29:20.162Z,13.03
2023-02-19T15:31:52.772Z,27.50
2023-02-19T15:34:30.152Z,17.63
2023-02-19T15:37:06.345Z,20.10
2023-02-19T15:39:39.170Z,22.20
2023-02-19T15:42:08.188Z,21.03
2023-02-19T15:44:49.768Z,20.33
2023-02-19T15:47:41.097Z,24.93
2023-02-19T15:50:20.362Z,19.90
2023-02-19T15:53:09.212Z,25.20
2023-02-19T15:55:40.365Z,17.80
2023-02-19T15:58:18.684Z,22.90
2023-02-19T16:00:50.618Z,25.33
2023-02-19T16:03:23.122Z,24.60
2023-02-19T16:06:03.576Z,30.83
2023-02-19T16:08:35.299Z,29.33
2023-02-19T16:11:05.473Z,25.57
2023-02-19T16:13:34.390Z,29.23
2023-02-19T16:16:16.701Z,26.27
2023-02-19T16:18:49.327Z,20.33
2023-02-19T16:21:20.140Z,20.00
2023-02-19T16:23:51.001Z,23.10
2023-02-19T16:26:18.209Z,24.90
2023-02-19T16:28:49.962Z,25.90
2023-02-19T16:31:19.744Z,22.67
2023-02-19T16:33:48.659Z,21.43
2023-02-19T16:36:39.162Z,30.30
2023-02-19T16:39:08.574Z,28.20
2023-02-19T16:41:41.192Z,23.80
2023-02-19T16:44:27.326Z,21.47
2023-02-19T16:47:12.167Z,27.03
2023-02-19T16:49:40.169Z,31.47
2023-02-19T16:52:06.888Z,29.03
2023-02-19T16:54:33.693Z,26.50
2023-02-19T16:57:00.850Z,27.17
2023-02-19T16:59:27.554Z,33.70
2023-02-19T17:01:54.192Z,47.73
2023-02-19T17:04:20.883Z,45.10
2023-02-19T17:06:47.840Z,44.20
2023-02-19T17:09:14.601Z,40.67
2023-02-19T17:11:41.312Z,33.10
2023-02-19T17:14:09.166Z,29.53
2023-02-19T17:16:40.075Z,30.33
2023-02-19T17:19:18.013Z,43.70
2023-02-19T17:21:46.521Z,32.57
2023-02-19T17:24:14.126Z,29.53
2023-02-19T17:26:41.284Z,32.60
2023-02-19T17:29:13.824Z,28.43
2023-02-19T17:31:40.681Z,30.23
2023-02-19T17:34:07.352Z,26.67
2023-02-19T17:36:34.529Z,30.40
2023-02-19T17:39:03.064Z,24.77
2023-02-19T17:41:30.038Z,21.50
2023-02-19T17:43:56.759Z,35.07
2023-02-19T17:46:27.430Z,29.33
2023-02-19T17:48:54.453Z,21.57
2023-02-19T17:51:22.119Z,24.30
2023-02-19T17:53:49.034Z,18.13
2023-02-19T17:56:17.968Z,17.50
2023-02-19T17:58:44.751Z,12.50
2023-02-19T18:01:11.929Z,10.67
2023-02-19T18:03:38.800Z,12.57
2023-02-19T18:06:05.852Z,10.50
2023-02-19T18:08:32.546Z,10.53
2023-02-19T18:10:59.440Z,6.90
2023-02-19T18:13:26.167Z,6.53
2023-02-19T18:15:53.584Z,11.83
2023-02-19T18:18:20.820Z,6.63
2023-02-19T18:20:47.509Z,7.60
2023-02-19T18:23:14.344Z,10.30
2023-02-19T18:25:41.013Z,8.23
2023-02-19T18:28:07.713Z,9.23
2023-02-19T18:30:34.461Z,10.47
2023-02-19T18:33:01.222Z,12.00
2023-02-19T18:35:27.896Z,8.83
2023-02-19T18:37:55.741Z,6.80
2023-02-19T18:40:25.750Z,8.30
2023-02-19T18:42:52.768Z,9.43
2023-02-19T18:45:19.985Z,6.83
2023-02-19T18:47:47.982Z,7.70
2023-02-19T18:50:15.789Z,7.97
2023-02-19T18:52:42.557Z,7.60
2023-02-19T18:55:10.457Z,6.50
2023-02-19T18:57:37.392Z,7.70
2023-02-19T19:00:06.591Z,5.77
2023-02-19T19:02:47.114Z,6.43
2023-02-19T19:05:20.814Z,9.20
2023-02-19T19:07:48.233Z,3.87
2023-02-19T19:10:14.978Z,4.80
2023-02-19T19:12:41.657Z,6.53
2023-02-19T19:15:08.869Z,2.60
2023-02-19T19:17:35.541Z,2.97
2023-02-19T19:20:02.250Z,3.70
2023-02-19T19:22:28.865Z,2.90
2023-02-19T19:24:55.512Z,4.97
2023-02-19T19:27:22.209Z,2.60
2023-02-19T19:29:49.720Z,3.07
2023-02-19T19:32:16.665Z,4.60
2023-02-19T19:34:43.513Z,3.23
2023-02-19T19:37:10.615Z,2.63
2023-02-19T19:39:37.525Z,4.77
2023-02-19T19:42:04.673Z,6.70
2023-02-19T19:44:31.366Z,7.07
2023-02-19T19:46:58.101Z,9.23
2023-02-19T19:49:24.873Z,10.40
2023-02-19T19:51:51.823Z,7.50
2023-02-19T19:54:18.498Z,5.60
2023-02-19T19:56:46.716Z,6.87
2023-02-19T19:59:14.968Z,11.50
2023-02-19T20:01:51.533Z,4.80
2023-02-19T20:04:20.758Z,8.53
2023-02-19T20:06:47.521Z,10.43
2023-02-19T20:09:14.879Z,18.20
2023-02-19T20:11:49.937Z,9.23
2023-02-19T20:14:18.030Z,6.93
2023-02-19T20:16:47.254Z,7.40
2023-02-19T20:19:14.919Z,5.80
2023-02-19T20:21:45.816Z,4.00
2023-02-19T20:24:25.775Z,4.40
2023-02-19T20:27:01.949Z,4.80
2023-02-19T20:29:31.625Z,6.23
2023-02-19T20:31:59.969Z,3.00
2023-02-19T20:34:27.144Z,3.80
2023-02-19T20:36:54.298Z,2.83
2023-02-19T20:39:22.054Z,3.30
2023-02-19T20:41:50.866Z,3.13
2023-02-19T20:44:18.834Z,4.27
2023-02-19T20:46:47.939Z,4.23
2023-02-19T20:49:16.624Z,3.73
2023-02-19T20:51:48.537Z,2.77
2023-02-19T20:54:17.549Z,2.97
2023-02-19T20:56:46.165Z,4.13
2023-02-19T20:59:14.541Z,4.57
2023-02-19T21:01:41.858Z,2.57
2023-02-19T21:04:08.608Z,2.23
2023-02-19T21:06:35.405Z,4.40
2023-02-19T21:09:02.357Z,2.50
2023-02-19T21:11:29.381Z,3.00
2023-02-19T21:13:58.946Z,3.93
2023-02-19T21:16:27.084Z,6.10
2023-02-19T21:18:54.463Z,5.40
2023-02-19T21:21:25.140Z,4.07
2023-02-19T21:23:53.153Z,7.83
2023-02-19T21:26:21.048Z,3.70
2023-02-19T21:28:50.198Z,3.40
2023-02-19T21:31:16.962Z,2.77
2023-02-19T21:33:43.707Z,5.43
2023-02-19T21:36:10.821Z,3.70
2023-02-19T21:38:37.823Z,3.93
2023-02-19T21:41:04.809Z,3.50
2023-02-19T21:43:32.073Z,3.70
2023-02-19T21:45:58.779Z,5.20
2023-02-19T21:48:25.413Z,4.67
2023-02-19T21:50:52.091Z,4.73
2023-02-19T21:53:18.730Z,2.23
2023-02-19T21:55:57.977Z,1.70
2023-02-19T21:58:26.101Z,6.37
2023-02-19T22:00:53.973Z,3.37
2023-02-19T22:03:21.038Z,2.50
2023-02-19T22:05:47.744Z,1.90
2023-02-19T22:08:15.817Z,1.90
2023-02-19T22:10:42.677Z,1.60
2023-02-19T22:13:10.040Z,3.50
2023-02-19T22:15:36.954Z,3.67
2023-02-19T22:18:03.992Z,2.50
2023-02-19T22:20:30.690Z,2.77
2023-02-19T22:22:57.364Z,3.50
2023-02-19T22:25:24.008Z,2.50
2023-02-19T22:27:50.693Z,3.10
2023-02-19T22:30:17.802Z,3.87
2023-02-19T22:32:44.510Z,2.97
2023-02-19T22:35:11.203Z,5.03
2023-02-19T22:37:37.852Z,2.83
2023-02-19T22:40:04.977Z,3.13
2023-02-19T22:42:31.703Z,4.47
2023-02-19T22:44:58.428Z,4.10
2023-02-19T22:47:25.509Z,3.13
2023-02-19T22:49:52.193Z,6.83
2023-02-19T22:52:18.866Z,3.80
2023-02-19T22:54:46.640Z,4.13
2023-02-19T22:57:13.290Z,4.10
2023-02-19T22:59:40.194Z,4.80
2023-02-19T23:02:06.909Z,4.27
2023-02-19T23:04:33.590Z,4.90
2023-02-19T23:07:00.254Z,2.63
2023-02-19T23:09:29.053Z,3.90
2023-02-19T23:12:04.727Z,4.50
2023-02-19T23:14:31.625Z,4.87
2023-02-19T23:16:58.510Z,5.10
2023-02-19T23:19:25.961Z,4.57
2023-02-19T23:21:53.168Z,7.73
2023-02-19T23:24:19.971Z,4.97
2023-02-19T23:26:49.518Z,4.80
2023-02-19T23:29:27.063Z,4.90
2023-02-19T23:31:54.800Z,4.67
2023-02-19T23:34:22.028Z,5.17
2023-02-19T23:36:50.213Z,4.87
2023-02-19T23:39:21.195Z,4.53
2023-02-19T23:41:50.657Z,6.53
2023-02-19T23:44:18.310Z,6.77
2023-02-19T23:46:45.006Z,6.37
2023-02-19T23:49:12.249Z,7.40
2023-02-19T23:51:39.075Z,7.40
2023-02-19T23:54:06.585Z,8.37
2023-02-19T23:56:33.610Z,6.13
2023-02-19T23:59:00.725Z,5.70
